Time;durP1;ratioP1;P1;durP2;ratioP2;P2;SDS_P1;SDS_P2;PMS_P1;PMS_P2;Temp;Humidity;BMP_temperature;BMP_pressure;BME280_temperature;BME280_humidity;BME280_pressure;Samples;Min_cycle;Max_cycle;Signal;HPM_P1;HPM_P2
2021/03/25 00:01:58;;;;;;;17.60;16.40;;;;;;;;;;5055670;28;20668;-59
2021/03/25 00:04:25;;;;;;;10.30;9.40;;;;;;;;;;5053284;28;20602;-59
2021/03/25 00:06:53;;;;;;;41.07;38.70;;;;;;;;;;5056595;28;20426;-59
2021/03/25 00:09:39;;;;;;;30.63;29.10;;;;;;;;;;5054061;28;20207;-59
2021/03/25 00:12:06;;;;;;;41.03;39.07;;;;;;;;;;5052949;28;20209;-59
2021/03/25 00:14:34;;;;;;;18.10;16.90;;;;;;;;;;5061037;28;20215;-59
2021/03/25 00:17:01;;;;;;;12.70;11.93;;;;;;;;;;5038164;28;20199;-59
2021/03/25 00:19:29;;;;;;;12.20;11.33;;;;;;;;;;5053781;28;20564;-59
2021/03/25 00:21:56;;;;;;;38.90;36.73;;;;;;;;;;5058815;28;20831;-59
2021/03/25 00:24:22;;;;;;;13.87;12.37;;;;;;;;;;5057649;28;20262;-59
2021/03/25 00:26:49;;;;;;;46.30;43.77;;;;;;;;;;5057300;28;20809;-59
2021/03/25 00:29:16;;;;;;;150.27;142.33;;;;;;;;;;5054934;28;20190;-59
2021/03/25 00:31:44;;;;;;;83.83;79.63;;;;;;;;;;5055534;28;20488;-59
2021/03/25 00:34:12;;;;;;;38.93;36.67;;;;;;;;;;5051577;28;20353;-59
2021/03/25 00:36:39;;;;;;;28.27;26.67;;;;;;;;;;5054460;28;20222;-59
2021/03/25 00:39:10;;;;;;;64.97;61.60;;;;;;;;;;5027205;28;20243;-59
2021/03/25 00:41:36;;;;;;;187.63;177.30;;;;;;;;;;5015100;28;20836;-59
2021/03/25 00:44:05;;;;;;;45.77;43.80;;;;;;;;;;5012476;28;20198;-60
2021/03/25 00:46:32;;;;;;;101.70;96.03;;;;;;;;;;5013315;28;20366;-59
2021/03/25 00:49:00;;;;;;;19.30;18.03;;;;;;;;;;5012102;28;20192;-59
2021/03/25 00:51:27;;;;;;;29.63;27.80;;;;;;;;;;5008783;28;20670;-59
2021/03/25 00:53:54;;;;;;;48.63;46.43;;;;;;;;;;5013654;28;20618;-59
2021/03/25 00:56:21;;;;;;;111.50;106.03;;;;;;;;;;5007440;28;20180;-59
2021/03/25 00:58:50;;;;;;;103.83;98.37;;;;;;;;;;5011449;28;20774;-59
2021/03/25 01:01:17;;;;;;;39.20;37.37;;;;;;;;;;5010571;28;20642;-60
2021/03/25 01:03:43;;;;;;;17.67;16.67;;;;;;;;;;5012150;28;20593;-59
2021/03/25 01:06:10;;;;;;;84.00;78.97;;;;;;;;;;5008191;28;20192;-60
2021/03/25 01:08:37;;;;;;;68.57;64.90;;;;;;;;;;5012686;28;20187;-59
2021/03/25 01:11:06;;;;;;;92.90;87.83;;;;;;;;;;5007513;28;20788;-60
2021/03/25 01:13:53;;;;;;;111.70;105.67;;;;;;;;;;5012632;28;20188;-59
2021/03/25 01:16:28;;;;;;;90.80;85.77;;;;;;;;;;5010721;28;20731;-60
2021/03/25 01:18:55;;;;;;;76.07;72.17;;;;;;;;;;5011256;28;20183;-60
2021/03/25 01:21:22;;;;;;;68.13;64.47;;;;;;;;;;5015044;28;20777;-59
2021/03/25 01:23:49;;;;;;;165.93;157.87;;;;;;;;;;5014933;28;20207;-59
2021/03/25 01:26:16;;;;;;;28.27;26.87;;;;;;;;;;5012188;28;20391;-59
2021/03/25 01:28:43;;;;;;;22.90;21.23;;;;;;;;;;5012535;28;20258;-60
2021/03/25 01:31:10;;;;;;;86.60;82.73;;;;;;;;;;5011993;28;20203;-60
2021/03/25 01:33:39;;;;;;;9.07;6.63;;;;;;;;;;5010508;28;20180;-59
2021/03/25 01:36:05;;;;;;;61.30;58.10;;;;;;;;;;5010688;28;20241;-60
2021/03/25 01:38:32;;;;;;;11.83;10.83;;;;;;;;;;5012488;28;20189;-59
2021/03/25 01:41:00;;;;;;;14.07;13.07;;;;;;;;;;5012401;28;20287;-60
2021/03/25 01:43:31;;;;;;;23.07;21.70;;;;;;;;;;5012767;28;20188;-60
2021/03/25 01:45:57;;;;;;;40.07;37.77;;;;;;;;;;5010204;28;20215;-60
2021/03/25 01:48:26;;;;;;;90.23;85.77;;;;;;;;;;5011714;28;20185;-59
2021/03/25 01:50:54;;;;;;;11.00;9.03;;;;;;;;;;5009572;28;20277;-60
2021/03/25 01:53:39;;;;;;;31.80;30.17;;;;;;;;;;5011515;28;20176;-59
2021/03/25 01:56:05;;;;;;;62.40;59.10;;;;;;;;;;5013725;28;20191;-60
2021/03/25 01:58:35;;;;;;;53.63;50.83;;;;;;;;;;5013510;28;20192;-59
2021/03/25 02:01:08;;;;;;;37.53;35.70;;;;;;;;;;5012431;28;20919;-60
2021/03/25 02:03:34;;;;;;;32.93;31.07;;;;;;;;;;5013172;28;20192;-59
2021/03/25 02:06:12;;;;;;;23.50;21.93;;;;;;;;;;5010714;28;20289;-59
2021/03/25 02:08:45;;;;;;;10.60;9.83;;;;;;;;;;5011363;28;20188;-59
2021/03/25 02:11:24;;;;;;;27.37;25.87;;;;;;;;;;5009130;28;20277;-60
2021/03/25 02:14:05;;;;;;;6.70;3.93;;;;;;;;;;5006904;28;20703;-60
2021/03/25 02:16:31;;;;;;;17.23;15.97;;;;;;;;;;5005967;28;20195;-59
2021/03/25 02:19:08;;;;;;;50.47;47.73;;;;;;;;;;5011069;28;20179;-59
2021/03/25 02:21:49;;;;;;;6.23;5.77;;;;;;;;;;5010408;28;20600;-59
2021/03/25 02:24:19;;;;;;;15.80;14.73;;;;;;;;;;5012203;28;20599;-59
2021/03/25 02:26:51;;;;;;;35.03;32.97;;;;;;;;;;5012072;28;20286;-59
2021/03/25 02:29:24;;;;;;;22.13;20.87;;;;;;;;;;5016130;28;20423;-59
2021/03/25 02:31:55;;;;;;;16.03;14.83;;;;;;;;;;5013936;28;20265;-59
2021/03/25 02:34:23;;;;;;;56.57;53.67;;;;;;;;;;5014046;28;20180;-59
2021/03/25 02:36:59;;;;;;;23.40;22.20;;;;;;;;;;5014691;28;20729;-59
2021/03/25 02:39:36;;;;;;;29.83;28.23;;;;;;;;;;5011064;28;20180;-59
2021/03/25 02:42:06;;;;;;;94.57;89.57;;;;;;;;;;5013285;28;20189;-59
2021/03/25 02:44:35;;;;;;;26.67;25.07;;;;;;;;;;5016569;28;20188;-59
2021/03/25 02:47:08;;;;;;;19.93;18.53;;;;;;;;;;5017104;28;20203;-59
2021/03/25 02:49:55;;;;;;;66.63;62.73;;;;;;;;;;5014714;28;20333;-59
2021/03/25 02:52:31;;;;;;;28.77;27.07;;;;;;;;;;5010131;28;20222;-59
2021/03/25 02:54:59;;;;;;;23.37;21.60;;;;;;;;;;5010187;28;20187;-60
2021/03/25 02:57:25;;;;;;;33.43;31.60;;;;;;;;;;5013545;28;20586;-60
2021/03/25 02:59:56;;;;;;;25.07;23.53;;;;;;;;;;5009951;28;20189;-59
2021/03/25 03:02:29;;;;;;;34.00;32.10;;;;;;;;;;5012954;28;20561;-60
2021/03/25 03:04:59;;;;;;;42.23;39.97;;;;;;;;;;5014810;28;20195;-59
2021/03/25 03:07:29;;;;;;;24.37;22.93;;;;;;;;;;5016620;28;20884;-59
2021/03/25 03:09:59;;;;;;;85.03;80.57;;;;;;;;;;5010502;28;20374;-60
2021/03/25 03:12:27;;;;;;;23.00;21.83;;;;;;;;;;5009517;28;20286;-60
2021/03/25 03:15:00;;;;;;;23.90;22.50;;;;;;;;;;5007817;28;21284;-60
2021/03/25 03:17:36;;;;;;;59.23;55.73;;;;;;;;;;5014453;28;20560;-59
2021/03/25 03:20:09;;;;;;;25.33;23.87;;;;;;;;;;5013372;28;20237;-59
2021/03/25 03:22:37;;;;;;;24.50;23.00;;;;;;;;;;5011741;28;20199;-59
2021/03/25 03:25:23;;;;;;;65.50;62.40;;;;;;;;;;5016473;28;20853;-59
2021/03/25 03:27:59;;;;;;;62.07;58.50;;;;;;;;;;5010476;28;20829;-59
2021/03/25 03:30:32;;;;;;;56.30;53.70;;;;;;;;;;5009428;28;20339;-59
2021/03/25 03:33:09;;;;;;;7.03;4.87;;;;;;;;;;5009198;28;20195;-59
2021/03/25 03:35:43;;;;;;;22.13;20.90;;;;;;;;;;5012420;28;20180;-59
2021/03/25 03:38:14;;;;;;;20.40;18.90;;;;;;;;;;5009597;28;20989;-59
2021/03/25 03:40:43;;;;;;;26.90;24.97;;;;;;;;;;5015691;28;21316;-59
2021/03/25 03:43:16;;;;;;;64.77;60.83;;;;;;;;;;5008821;28;20192;-59
2021/03/25 03:45:45;;;;;;;23.70;22.17;;;;;;;;;;5010611;28;20187;-59
2021/03/25 03:48:24;;;;;;;8.40;7.60;;;;;;;;;;5010478;28;20716;-59
2021/03/25 03:50:53;;;;;;;9.73;5.57;;;;;;;;;;5018178;28;20210;-59
2021/03/25 03:53:20;;;;;;;45.07;42.60;;;;;;;;;;5011009;28;20655;-59
2021/03/25 03:55:46;;;;;;;18.00;16.93;;;;;;;;;;5012243;28;20184;-59
2021/03/25 03:58:13;;;;;;;27.43;25.43;;;;;;;;;;5012488;28;20541;-59
2021/03/25 04:01:01;;;;;;;71.53;67.67;;;;;;;;;;5015002;28;20271;-59
2021/03/25 04:03:30;;;;;;;6.77;4.13;;;;;;;;;;5009281;28;20267;-59
2021/03/25 04:05:59;;;;;;;54.53;51.40;;;;;;;;;;5010515;28;20357;-59
2021/03/25 04:08:35;;;;;;;21.80;20.13;;;;;;;;;;5011251;28;20199;-59
2021/03/25 04:11:01;;;;;;;10.73;9.80;;;;;;;;;;5010557;28;20607;-59
2021/03/25 04:13:29;;;;;;;52.83;49.90;;;;;;;;;;5012278;28;20693;-60
2021/03/25 04:15:56;;;;;;;11.97;10.83;;;;;;;;;;5007324;28;20295;-59
2021/03/25 04:18:31;;;;;;;12.13;11.13;;;;;;;;;;5009617;28;20177;-59
2021/03/25 04:21:05;;;;;;;12.83;11.83;;;;;;;;;;5014501;28;20468;-59
2021/03/25 04:23:32;;;;;;;47.30;43.87;;;;;;;;;;5011953;28;20188;-59
2021/03/25 04:26:05;;;;;;;57.13;53.57;;;;;;;;;;5012653;28;20777;-59
2021/03/25 04:28:36;;;;;;;25.00;23.47;;;;;;;;;;5014466;28;20196;-59
2021/03/25 04:31:07;;;;;;;29.87;28.37;;;;;;;;;;5012332;28;20210;-59
2021/03/25 04:33:35;;;;;;;26.53;24.60;;;;;;;;;;5014087;28;20176;-59
2021/03/25 04:36:02;;;;;;;59.87;56.27;;;;;;;;;;5014735;28;20212;-59
2021/03/25 04:38:34;;;;;;;24.03;22.73;;;;;;;;;;5011598;28;20582;-59
2021/03/25 04:41:01;;;;;;;67.13;63.70;;;;;;;;;;5010626;28;20192;-59
2021/03/25 04:43:28;;;;;;;42.43;39.63;;;;;;;;;;5013044;28;20920;-59
2021/03/25 04:45:55;;;;;;;124.33;115.67;;;;;;;;;;5012772;28;20203;-59
2021/03/25 04:48:23;;;;;;;55.80;52.40;;;;;;;;;;5010059;28;20636;-59
2021/03/25 04:51:07;;;;;;;66.60;63.00;;;;;;;;;;5008725;28;20523;-59
2021/03/25 04:53:36;;;;;;;50.87;47.83;;;;;;;;;;5012276;28;20192;-59
2021/03/25 04:56:04;;;;;;;16.07;14.93;;;;;;;;;;5012840;28;20176;-59
2021/03/25 04:58:33;;;;;;;25.53;23.90;;;;;;;;;;5011748;28;20225;-59
2021/03/25 05:01:08;;;;;;;44.73;42.20;;;;;;;;;;5010538;28;20242;-59
2021/03/25 05:03:34;;;;;;;23.77;22.17;;;;;;;;;;5011020;28;20898;-59
2021/03/25 05:06:01;;;;;;;53.40;50.03;;;;;;;;;;5014353;28;20187;-59
2021/03/25 05:08:32;;;;;;;23.00;21.67;;;;;;;;;;5011436;28;20766;-58
2021/03/25 05:11:01;;;;;;;48.80;45.57;;;;;;;;;;5009290;28;20317;-59
2021/03/25 05:13:34;;;;;;;33.57;31.43;;;;;;;;;;5007325;28;20186;-59
2021/03/25 05:16:03;;;;;;;29.20;27.47;;;;;;;;;;5011158;28;20191;-59
2021/03/25 05:18:31;;;;;;;32.73;30.70;;;;;;;;;;5014083;28;20268;-58
2021/03/25 05:21:05;;;;;;;54.60;51.47;;;;;;;;;;5009945;28;20192;-59
2021/03/25 05:23:38;;;;;;;54.50;51.60;;;;;;;;;;5009121;28;20204;-58
2021/03/25 05:26:11;;;;;;;41.10;38.73;;;;;;;;;;5009313;28;20187;-59
2021/03/25 05:28:39;;;;;;;19.37;17.93;;;;;;;;;;5007608;28;20235;-59
2021/03/25 05:31:07;;;;;;;20.60;19.30;;;;;;;;;;5009308;28;20504;-58
2021/03/25 05:33:35;;;;;;;8.63;7.63;;;;;;;;;;5028677;28;21279;-59
2021/03/25 05:36:03;;;;;;;31.97;29.80;;;;;;;;;;5010562;28;20747;-59
2021/03/25 05:38:30;;;;;;;30.57;28.77;;;;;;;;;;5010596;28;20199;-59
2021/03/25 05:41:09;;;;;;;18.73;17.37;;;;;;;;;;5007991;28;20207;-59
2021/03/25 05:43:53;;;;;;;14.67;13.43;;;;;;;;;;5006511;28;20744;-58
2021/03/25 05:46:38;;;;;;;11.77;10.37;;;;;;;;;;5009424;28;20214;-59
2021/03/25 05:49:07;;;;;;;35.77;33.70;;;;;;;;;;5008916;28;20242;-59
2021/03/25 05:51:38;;;;;;;7.03;4.53;;;;;;;;;;5006427;28;20904;-59
2021/03/25 05:54:31;;;;;;;12.00;11.00;;;;;;;;;;5011928;28;20192;-59
2021/03/25 05:57:13;;;;;;;37.00;34.97;;;;;;;;;;5011036;28;20180;-59
2021/03/25 05:59:44;;;;;;;19.50;18.00;;;;;;;;;;5012262;28;20194;-59
2021/03/25 06:02:13;;;;;;;24.97;23.37;;;;;;;;;;5010807;28;20222;-59
2021/03/25 06:04:40;;;;;;;8.07;5.63;;;;;;;;;;5011117;28;20665;-59
2021/03/25 06:07:13;;;;;;;48.40;45.23;;;;;;;;;;5018726;28;20196;-59
2021/03/25 06:09:45;;;;;;;5.53;2.93;;;;;;;;;;5019349;28;20801;-59
2021/03/25 06:12:15;;;;;;;28.03;26.40;;;;;;;;;;5012097;28;20212;-59
2021/03/25 06:15:00;;;;;;;10.40;6.80;;;;;;;;;;5013983;28;20181;-59
2021/03/25 06:17:36;;;;;;;28.87;26.77;;;;;;;;;;5013793;28;20211;-59
2021/03/25 06:20:06;;;;;;;8.50;6.53;;;;;;;;;;5015244;28;20191;-58
2021/03/25 06:22:51;;;;;;;8.70;7.13;;;;;;;;;;5009728;28;20195;-59
2021/03/25 06:25:23;;;;;;;10.93;8.67;;;;;;;;;;5015042;28;20272;-58
2021/03/25 06:27:56;;;;;;;5.90;4.80;;;;;;;;;;5005820;28;20188;-59
2021/03/25 06:30:26;;;;;;;11.37;5.13;;;;;;;;;;5012979;28;20754;-59
2021/03/25 06:33:01;;;;;;;9.23;3.00;;;;;;;;;;5015535;28;20200;-59
2021/03/25 13:16:48;;;;;;;0.00;0.00;;;;;;;;;;5092263;27;20622;-58
2021/03/25 13:19:15;;;;;;;0.00;0.00;;;;;;;;;;5089289;28;20181;-59
2021/03/25 13:21:41;;;;;;;0.03;0.00;;;;;;;;;;5095154;28;20212;-59
2021/03/25 13:24:08;;;;;;;0.00;0.00;;;;;;;;;;5100078;28;20183;-59
2021/03/25 13:26:34;;;;;;;0.13;0.13;;;;;;;;;;5081696;28;20185;-59
2021/03/25 13:29:02;;;;;;;0.33;0.33;;;;;;;;;;5075625;28;20181;-59
2021/03/25 13:31:28;;;;;;;0.10;0.10;;;;;;;;;;5093552;28;20207;-59
2021/03/25 13:33:55;;;;;;;0.00;0.00;;;;;;;;;;5076072;28;20190;-59
2021/03/25 13:36:21;;;;;;;15.37;1.10;;;;;;;;;;5076814;28;20212;-59
2021/03/25 13:38:48;;;;;;;0.20;0.03;;;;;;;;;;5095414;28;20182;-59
2021/03/25 13:41:14;;;;;;;0.00;0.00;;;;;;;;;;5095187;28;20192;-59
2021/03/25 13:43:41;;;;;;;1.70;0.50;;;;;;;;;;5095259;28;20191;-59
2021/03/25 13:46:07;;;;;;;0.00;0.00;;;;;;;;;;5094689;28;20183;-59
2021/03/25 13:48:34;;;;;;;0.00;0.00;;;;;;;;;;5095300;28;20208;-59
2021/03/25 13:51:02;;;;;;;1.70;0.47;;;;;;;;;;5094808;28;20965;-59
2021/03/25 13:53:29;;;;;;;0.93;0.93;;;;;;;;;;5094676;28;20205;-58
2021/03/25 13:55:57;;;;;;;0.03;0.03;;;;;;;;;;5076894;28;20619;-59
2021/03/25 13:58:27;;;;;;;0.83;0.20;;;;;;;;;;5076725;28;20191;-59
2021/03/25 14:00:54;;;;;;;1.20;1.20;;;;;;;;;;5094400;28;20189;-59
2021/03/25 14:03:21;;;;;;;0.10;0.10;;;;;;;;;;5094445;28;20241;-59
2021/03/25 14:05:47;;;;;;;0.47;0.37;;;;;;;;;;5095015;28;20469;-59
2021/03/25 14:08:14;;;;;;;1.50;0.00;;;;;;;;;;5094365;28;20197;-59
2021/03/25 14:10:42;;;;;;;8.60;0.47;;;;;;;;;;5094542;28;20336;-59
2021/03/25 14:13:11;;;;;;;0.43;0.43;;;;;;;;;;5089402;28;20658;-59
2021/03/25 14:15:40;;;;;;;1.70;0.40;;;;;;;;;;5076026;28;20287;-59
2021/03/25 14:18:14;;;;;;;0.10;0.10;;;;;;;;;;5074567;28;20186;-59
2021/03/25 14:20:41;;;;;;;0.43;0.43;;;;;;;;;;5087903;28;20173;-59
2021/03/25 14:23:07;;;;;;;0.20;0.20;;;;;;;;;;5087904;28;20192;-58
2021/03/25 14:25:40;;;;;;;5.13;0.20;;;;;;;;;;5074565;28;20216;-59
2021/03/25 14:28:07;;;;;;;0.20;0.20;;;;;;;;;;5076554;28;20217;-59
2021/03/25 14:30:36;;;;;;;15.07;1.10;;;;;;;;;;5078892;28;20191;-59
2021/03/25 14:33:03;;;;;;;0.00;0.00;;;;;;;;;;5061268;28;20551;-59
2021/03/25 14:35:31;;;;;;;0.17;0.00;;;;;;;;;;5060600;28;20206;-60
2021/03/25 14:37:58;;;;;;;1.70;1.23;;;;;;;;;;5060804;28;20957;-59
2021/03/25 14:40:25;;;;;;;0.63;0.13;;;;;;;;;;5060866;28;20197;-59
2021/03/25 14:42:52;;;;;;;0.10;0.00;;;;;;;;;;5060996;28;20783;-59
2021/03/25 14:45:21;;;;;;;0.00;0.00;;;;;;;;;;5060922;28;20199;-59
2021/03/25 14:47:47;;;;;;;0.00;0.00;;;;;;;;;;5080808;28;20232;-60
2021/03/25 14:50:14;;;;;;;0.00;0.00;;;;;;;;;;5060766;28;20194;-60
2021/03/25 14:52:41;;;;;;;0.80;0.30;;;;;;;;;;5060541;28;20339;-60
2021/03/25 14:55:08;;;;;;;1.20;0.30;;;;;;;;;;5060368;28;20698;-59
2021/03/25 14:57:37;;;;;;;0.60;0.30;;;;;;;;;;5071179;28;20725;-59
2021/03/25 15:00:08;;;;;;;2.93;0.43;;;;;;;;;;5079933;28;20186;-59
2021/03/25 15:02:34;;;;;;;1.70;0.63;;;;;;;;;;5080158;28;20446;-59
2021/03/25 15:05:01;;;;;;;0.30;0.30;;;;;;;;;;5080120;28;20655;-59
2021/03/25 15:07:28;;;;;;;0.27;0.10;;;;;;;;;;5080215;28;20313;-59
2021/03/25 15:09:54;;;;;;;0.10;0.10;;;;;;;;;;5080483;28;20547;-59
2021/03/25 15:12:21;;;;;;;0.00;0.00;;;;;;;;;;5079632;28;20182;-59
2021/03/25 15:14:47;;;;;;;0.63;0.30;;;;;;;;;;5079514;28;20251;-60
2021/03/25 15:17:13;;;;;;;2.73;0.93;;;;;;;;;;5079527;28;20220;-59
2021/03/25 15:19:40;;;;;;;2.00;0.47;;;;;;;;;;5075828;28;20179;-59
2021/03/25 15:22:07;;;;;;;0.20;0.20;;;;;;;;;;5075935;28;20178;-59
2021/03/25 15:24:33;;;;;;;1.43;0.63;;;;;;;;;;5071426;28;20171;-59
2021/03/25 15:27:00;;;;;;;0.53;0.30;;;;;;;;;;5066653;28;20651;-59
2021/03/25 15:29:29;;;;;;;6.43;0.47;;;;;;;;;;5079644;28;20189;-59
2021/03/25 15:31:58;;;;;;;0.37;0.27;;;;;;;;;;5079286;28;20185;-59
2021/03/25 15:34:25;;;;;;;0.00;0.00;;;;;;;;;;5079463;28;20240;-59
2021/03/25 15:36:51;;;;;;;0.60;0.40;;;;;;;;;;5079043;28;20242;-59
2021/03/25 15:39:20;;;;;;;1.57;0.53;;;;;;;;;;5074044;28;20418;-59
2021/03/25 15:41:47;;;;;;;2.37;0.57;;;;;;;;;;5071220;28;20185;-59
2021/03/25 15:44:22;;;;;;;0.00;0.00;;;;;;;;;;5079193;28;20259;-59
2021/03/25 15:46:49;;;;;;;1.60;1.20;;;;;;;;;;5079469;28;20180;-59
2021/03/25 15:49:16;;;;;;;0.20;0.20;;;;;;;;;;5078735;28;20195;-59
2021/03/25 15:51:44;;;;;;;0.03;0.03;;;;;;;;;;5078614;28;20200;-59
2021/03/25 15:54:10;;;;;;;0.00;0.00;;;;;;;;;;5079560;28;20184;-60
2021/03/25 15:56:37;;;;;;;0.00;0.00;;;;;;;;;;5079000;28;20213;-59
2021/03/25 15:59:04;;;;;;;0.20;0.00;;;;;;;;;;5078876;28;20633;-59
2021/03/25 16:01:33;;;;;;;0.00;0.00;;;;;;;;;;5078942;28;20638;-59
2021/03/25 16:04:00;;;;;;;0.30;0.10;;;;;;;;;;5078444;28;20193;-60
2021/03/25 16:06:27;;;;;;;1.17;0.13;;;;;;;;;;5079102;28;20677;-59
2021/03/25 16:08:55;;;;;;;1.77;0.30;;;;;;;;;;5078212;28;20193;-59
2021/03/25 16:11:22;;;;;;;0.00;0.00;;;;;;;;;;5078726;28;20737;-59
2021/03/25 16:13:49;;;;;;;0.40;0.30;;;;;;;;;;5074774;28;20252;-59
2021/03/25 16:16:15;;;;;;;2.00;0.30;;;;;;;;;;5069537;28;20233;-59
2021/03/25 16:18:44;;;;;;;1.53;1.23;;;;;;;;;;5073823;28;20184;-59
2021/03/25 16:21:11;;;;;;;0.10;0.10;;;;;;;;;;5058859;28;20183;-59
2021/03/25 16:23:46;;;;;;;2.60;1.67;;;;;;;;;;5058945;28;20197;-59
2021/03/25 16:26:18;;;;;;;0.10;0.10;;;;;;;;;;5059013;28;20193;-60
2021/03/25 16:28:44;;;;;;;4.50;0.23;;;;;;;;;;5068079;28;20554;-59
2021/03/25 16:31:11;;;;;;;0.00;0.00;;;;;;;;;;5059692;28;20281;-59
2021/03/25 16:33:38;;;;;;;0.00;0.00;;;;;;;;;;5059885;28;20476;-58
2021/03/25 16:36:05;;;;;;;1.27;1.23;;;;;;;;;;5059251;28;20217;-59
2021/03/25 16:38:32;;;;;;;0.30;0.30;;;;;;;;;;5058817;28;20417;-59
2021/03/25 16:41:02;;;;;;;0.00;0.00;;;;;;;;;;5064284;28;20592;-58
2021/03/25 16:43:33;;;;;;;0.10;0.10;;;;;;;;;;5078483;28;20198;-59
2021/03/25 16:46:01;;;;;;;1.80;0.50;;;;;;;;;;5077604;28;20190;-59
2021/03/25 16:48:27;;;;;;;0.00;0.00;;;;;;;;;;5078613;28;20480;-59
2021/03/25 16:50:55;;;;;;;0.23;0.10;;;;;;;;;;5078301;28;20694;-59
2021/03/25 16:53:22;;;;;;;3.17;0.43;;;;;;;;;;5078449;28;20190;-58
2021/03/25 16:55:49;;;;;;;0.73;0.20;;;;;;;;;;5066375;28;20199;-59
2021/03/25 16:58:18;;;;;;;7.83;1.10;;;;;;;;;;5059057;28;20229;-59
2021/03/25 17:00:45;;;;;;;0.10;0.10;;;;;;;;;;5072991;28;20193;-59
2021/03/25 17:03:14;;;;;;;2.53;0.00;;;;;;;;;;5077072;28;20255;-59
2021/03/25 17:05:41;;;;;;;0.73;0.70;;;;;;;;;;5078687;28;20893;-59
2021/03/25 17:08:09;;;;;;;1.47;0.10;;;;;;;;;;5078723;28;20188;-59
2021/03/25 17:10:37;;;;;;;0.00;0.00;;;;;;;;;;5078245;28;20626;-59
2021/03/25 17:13:06;;;;;;;0.37;0.33;;;;;;;;;;5078157;28;20187;-59
2021/03/25 17:15:33;;;;;;;0.10;0.10;;;;;;;;;;5075384;28;20237;-59
2021/03/25 17:18:01;;;;;;;2.53;2.20;;;;;;;;;;5075841;28;20200;-59
2021/03/25 17:20:38;;;;;;;1.23;0.13;;;;;;;;;;5071611;28;20727;-59
2021/03/25 17:23:06;;;;;;;0.00;0.00;;;;;;;;;;5058611;28;20220;-58
2021/03/25 17:25:34;;;;;;;0.33;0.33;;;;;;;;;;5075410;28;20212;-59
2021/03/25 17:28:01;;;;;;;0.10;0.10;;;;;;;;;;5077982;28;20558;-59
2021/03/25 17:30:29;;;;;;;0.83;0.50;;;;;;;;;;5077513;28;20186;-59
2021/03/25 17:32:56;;;;;;;0.97;0.17;;;;;;;;;;5077630;28;20197;-59
2021/03/25 17:35:25;;;;;;;0.00;0.00;;;;;;;;;;5077398;28;20743;-58
2021/03/25 17:37:56;;;;;;;0.10;0.00;;;;;;;;;;5076961;28;20186;-58
2021/03/25 17:40:23;;;;;;;0.00;0.00;;;;;;;;;;5058618;28;20181;-59
2021/03/25 17:42:52;;;;;;;0.73;0.17;;;;;;;;;;5077218;28;20182;-58
2021/03/25 17:45:24;;;;;;;0.83;0.37;;;;;;;;;;5077511;28;20329;-59
2021/03/25 17:47:51;;;;;;;0.77;0.37;;;;;;;;;;5065753;28;20866;-60
2021/03/25 17:50:18;;;;;;;1.30;0.00;;;;;;;;;;5063081;28;20785;-59
2021/03/25 17:52:44;;;;;;;0.07;0.07;;;;;;;;;;5077613;28;20190;-59
2021/03/25 17:55:11;;;;;;;0.10;0.10;;;;;;;;;;5077587;28;20401;-59
2021/03/25 17:57:38;;;;;;;0.00;0.00;;;;;;;;;;5076888;28;20228;-59
2021/03/25 18:00:09;;;;;;;0.23;0.23;;;;;;;;;;5077329;28;20205;-59
2021/03/25 18:02:35;;;;;;;0.00;0.00;;;;;;;;;;5079331;28;20660;-59
2021/03/25 18:05:02;;;;;;;0.77;0.77;;;;;;;;;;5080608;28;20192;-59
2021/03/25 18:07:28;;;;;;;2.40;0.77;;;;;;;;;;5081118;28;20224;-59
2021/03/25 18:09:55;;;;;;;0.00;0.00;;;;;;;;;;5080475;28;20186;-59
2021/03/25 18:12:26;;;;;;;0.00;0.00;;;;;;;;;;5080924;28;20692;-59
2021/03/25 18:14:53;;;;;;;0.00;0.00;;;;;;;;;;5080065;28;20346;-59
2021/03/25 18:17:19;;;;;;;1.17;0.40;;;;;;;;;;5069461;28;20791;-59
2021/03/25 18:19:46;;;;;;;1.07;0.53;;;;;;;;;;5073593;28;20726;-59
2021/03/25 18:22:13;;;;;;;0.00;0.00;;;;;;;;;;5064669;28;20190;-59
2021/03/25 18:24:44;;;;;;;0.20;0.10;;;;;;;;;;5062974;28;20187;-59
2021/03/25 18:27:11;;;;;;;3.10;0.60;;;;;;;;;;5071173;28;20186;-59
2021/03/25 18:29:38;;;;;;;0.13;0.13;;;;;;;;;;5061077;28;20219;-59
2021/03/25 18:32:07;;;;;;;0.00;0.00;;;;;;;;;;5061338;28;20231;-59
2021/03/25 18:34:34;;;;;;;0.10;0.10;;;;;;;;;;5060678;28;20882;-59
2021/03/25 18:37:01;;;;;;;0.20;0.20;;;;;;;;;;5060802;28;20714;-59
2021/03/25 18:39:28;;;;;;;0.23;0.07;;;;;;;;;;5061194;28;20187;-58
2021/03/25 18:41:54;;;;;;;0.00;0.00;;;;;;;;;;5061085;28;20913;-59
2021/03/25 18:44:22;;;;;;;0.73;0.27;;;;;;;;;;5060883;28;20191;-59
2021/03/25 18:46:50;;;;;;;0.20;0.20;;;;;;;;;;5061004;28;20252;-59
2021/03/25 18:49:18;;;;;;;0.30;0.27;;;;;;;;;;5060411;28;20244;-59
2021/03/25 18:51:45;;;;;;;0.63;0.10;;;;;;;;;;5079181;28;20192;-59
2021/03/25 18:54:11;;;;;;;1.50;0.50;;;;;;;;;;5079999;28;20756;-59
2021/03/25 18:56:43;;;;;;;0.27;0.27;;;;;;;;;;5080136;28;20973;-59
2021/03/25 18:59:09;;;;;;;1.03;0.40;;;;;;;;;;5080144;28;20231;-59
2021/03/25 19:01:38;;;;;;;0.00;0.00;;;;;;;;;;5076900;28;20452;-58
2021/03/25 19:04:05;;;;;;;0.20;0.20;;;;;;;;;;5060631;28;20861;-59
2021/03/25 19:06:31;;;;;;;0.43;0.43;;;;;;;;;;5060456;28;20193;-59
2021/03/25 19:08:58;;;;;;;0.93;0.33;;;;;;;;;;5060223;28;20872;-60
2021/03/25 19:11:26;;;;;;;0.40;0.40;;;;;;;;;;5060442;28;20659;-59
2021/03/25 19:13:53;;;;;;;1.20;0.47;;;;;;;;;;5060997;28;20191;-59
2021/03/25 19:16:20;;;;;;;3.80;0.13;;;;;;;;;;5074950;28;20294;-59
2021/03/25 19:18:46;;;;;;;2.97;0.43;;;;;;;;;;5065994;28;20638;-58
2021/03/25 19:21:13;;;;;;;24.83;23.33;;;;;;;;;;5060996;28;20707;-59
2021/03/25 19:23:48;;;;;;;1.40;0.63;;;;;;;;;;5066079;28;20659;-59
2021/03/25 19:26:15;;;;;;;0.00;0.00;;;;;;;;;;5069944;28;20183;-59
2021/03/25 19:28:42;;;;;;;0.00;0.00;;;;;;;;;;5059870;28;20919;-59
2021/03/25 19:31:12;;;;;;;0.00;0.00;;;;;;;;;;5060217;28;20179;-59
2021/03/25 19:33:39;;;;;;;0.20;0.10;;;;;;;;;;5077129;28;20812;-59
2021/03/25 19:36:06;;;;;;;0.27;0.03;;;;;;;;;;5059929;28;20742;-59
2021/03/25 19:38:34;;;;;;;0.10;0.10;;;;;;;;;;5059805;28;20520;-57
2021/03/25 19:41:04;;;;;;;0.10;0.10;;;;;;;;;;5060063;28;20189;-56
2021/03/25 19:43:32;;;;;;;0.20;0.00;;;;;;;;;;5059342;28;20190;-59
2021/03/25 19:46:00;;;;;;;0.40;0.40;;;;;;;;;;5059780;28;20179;-58
2021/03/25 19:48:26;;;;;;;0.30;0.23;;;;;;;;;;5059591;28;20685;-59
2021/03/25 19:50:55;;;;;;;1.40;0.63;;;;;;;;;;5059620;28;20955;-58
2021/03/25 19:53:23;;;;;;;0.30;0.30;;;;;;;;;;5062208;28;20207;-59
2021/03/25 19:55:50;;;;;;;0.23;0.23;;;;;;;;;;5078991;28;20732;-59
2021/03/25 19:58:16;;;;;;;0.00;0.00;;;;;;;;;;5078989;28;20864;-59
2021/03/25 20:00:44;;;;;;;0.37;0.37;;;;;;;;;;5078081;28;20191;-59
2021/03/25 20:03:10;;;;;;;0.10;0.10;;;;;;;;;;5060159;28;20180;-59
2021/03/25 20:05:40;;;;;;;0.00;0.00;;;;;;;;;;5078604;28;20541;-59
2021/03/25 20:08:07;;;;;;;1.00;0.50;;;;;;;;;;5065147;28;21031;-59
2021/03/25 20:10:34;;;;;;;0.20;0.20;;;;;;;;;;5059223;28;20324;-59
2021/03/25 20:13:01;;;;;;;0.33;0.10;;;;;;;;;;5059620;28;20923;-59
2021/03/25 20:15:28;;;;;;;0.10;0.10;;;;;;;;;;5073814;28;20225;-59
2021/03/25 20:17:55;;;;;;;0.00;0.00;;;;;;;;;;5065172;28;20207;-59
2021/03/25 20:20:22;;;;;;;0.00;0.00;;;;;;;;;;5058675;28;20193;-58
2021/03/25 20:22:48;;;;;;;0.20;0.10;;;;;;;;;;5059224;28;20806;-58
2021/03/25 20:25:15;;;;;;;0.00;0.00;;;;;;;;;;5076761;28;20182;-59
2021/03/25 20:27:42;;;;;;;0.20;0.20;;;;;;;;;;5078249;28;20193;-59
2021/03/25 20:30:10;;;;;;;0.00;0.00;;;;;;;;;;5079443;28;20174;-59
2021/03/25 20:32:36;;;;;;;0.20;0.20;;;;;;;;;;5068309;28;20235;-59
2021/03/25 20:35:04;;;;;;;1.13;0.50;;;;;;;;;;5057977;28;20190;-59
2021/03/25 20:37:30;;;;;;;0.00;0.00;;;;;;;;;;5058800;28;20210;-59
2021/03/25 20:39:57;;;;;;;0.10;0.10;;;;;;;;;;5058595;28;20250;-59
2021/03/25 20:42:24;;;;;;;0.00;0.00;;;;;;;;;;5058864;28;20276;-59
2021/03/25 20:44:50;;;;;;;0.50;0.50;;;;;;;;;;5058756;28;20196;-58
2021/03/25 20:47:17;;;;;;;0.00;0.00;;;;;;;;;;5058287;28;20210;-58
2021/03/25 20:49:43;;;;;;;0.10;0.00;;;;;;;;;;5058366;28;20259;-59
2021/03/25 20:52:10;;;;;;;0.00;0.00;;;;;;;;;;5065367;28;20180;-59
2021/03/25 20:54:37;;;;;;;3.20;0.83;;;;;;;;;;5071811;28;20278;-58
2021/03/25 20:57:04;;;;;;;0.47;0.30;;;;;;;;;;5077460;28;20292;-59
2021/03/25 20:59:31;;;;;;;4.17;0.47;;;;;;;;;;5078213;28;20186;-57
2021/03/25 21:01:58;;;;;;;1.63;0.10;;;;;;;;;;5077668;28;20215;-59
2021/03/25 21:04:27;;;;;;;1.27;0.23;;;;;;;;;;5077555;28;20571;-58
2021/03/25 21:06:54;;;;;;;0.00;0.00;;;;;;;;;;5071136;28;20185;-59
2021/03/25 21:09:20;;;;;;;0.00;0.00;;;;;;;;;;5057007;28;20179;-58
2021/03/25 21:11:47;;;;;;;0.87;0.10;;;;;;;;;;5075661;28;20189;-58
2021/03/25 21:14:13;;;;;;;1.07;0.67;;;;;;;;;;5073700;28;20193;-58
2021/03/25 21:16:40;;;;;;;0.40;0.30;;;;;;;;;;5066979;28;20348;-59
2021/03/25 21:19:07;;;;;;;0.73;0.50;;;;;;;;;;5056942;28;20186;-58
2021/03/25 21:21:34;;;;;;;0.10;0.00;;;;;;;;;;5058492;28;20241;-54
2021/03/25 21:24:01;;;;;;;3.13;0.60;;;;;;;;;;5066914;28;20182;-53
2021/03/25 21:26:27;;;;;;;0.00;0.00;;;;;;;;;;5076209;28;20983;-52